Aviation Digital Data Service (ADDS)

Output produced by METARs form (1646 UTC 30 October 2020)
found at http://www.aviationweather.gov/metar/data/
 
KCSV 301553Z AUTO 35009KT 10SM OVC021 07/02 A3022 RMK AO2 SLP235 T00670017
KCSV 301332Z 3014/3112 34010KT P6SM OVC015 
     FM301800 36008KT P6SM SCT040 
     FM310000 02006KT P6SM SKC